createdAt,value
2018-04-17T00:05:39.927Z,24.57
2018-04-17T00:11:44.299Z,23.70
2018-04-17T00:17:48.786Z,21.63
2018-04-17T00:23:53.349Z,20.93
2018-04-17T00:29:57.878Z,23.53
2018-04-17T00:36:02.281Z,23.57
2018-04-17T00:42:07.446Z,23.43
2018-04-17T00:48:12.289Z,20.97
2018-04-17T00:54:16.741Z,22.00
2018-04-17T01:00:21.118Z,26.40
2018-04-17T01:06:25.583Z,21.50
2018-04-17T01:12:30.800Z,24.87
2018-04-17T01:18:35.196Z,24.70
2018-04-17T01:24:40.096Z,26.50
2018-04-17T01:30:44.696Z,25.47
2018-04-17T01:36:49.105Z,25.57
2018-04-17T01:42:54.264Z,24.67
2018-04-17T01:48:58.703Z,26.97
2018-04-17T01:55:03.161Z,24.40
2018-04-17T02:01:07.641Z,26.63
2018-04-17T02:07:12.027Z,26.27
2018-04-17T02:13:16.427Z,25.57
2018-04-17T02:19:20.874Z,22.40
2018-04-17T02:25:25.342Z,24.23
2018-04-17T02:31:29.746Z,20.60
2018-04-17T02:37:34.137Z,23.40
2018-04-17T02:43:38.520Z,23.67
2018-04-17T02:49:43.235Z,20.53
2018-04-17T02:55:48.440Z,18.90
2018-04-17T03:01:52.818Z,25.90
2018-04-17T03:07:58.093Z,21.43
2018-04-17T03:14:03.234Z,17.73
2018-04-17T03:20:07.845Z,20.30
2018-04-17T03:26:12.272Z,23.10
2018-04-17T03:32:16.655Z,21.30
2018-04-17T03:38:21.103Z,22.73
2018-04-17T03:44:26.307Z,18.13
2018-04-17T03:50:30.667Z,21.63
2018-04-17T03:56:35.056Z,26.23
2018-04-17T04:02:39.458Z,20.47
2018-04-17T04:08:43.929Z,29.77
2018-04-17T04:14:48.392Z,29.90
2018-04-17T04:21:10.679Z,26.50
2018-04-17T04:27:15.070Z,27.57
2018-04-17T04:33:19.466Z,31.47
2018-04-17T04:39:23.923Z,33.57
2018-04-17T04:45:28.512Z,28.97
2018-04-17T04:51:32.917Z,35.00
2018-04-17T04:57:37.344Z,22.13
2018-04-17T05:03:41.936Z,22.70
2018-04-17T05:09:46.346Z,23.20
2018-04-17T05:15:50.748Z,18.60
2018-04-17T05:21:55.927Z,18.50
2018-04-17T05:28:00.343Z,16.50
2018-04-17T05:34:04.744Z,18.03
2018-04-17T05:40:09.287Z,19.33
2018-04-17T05:46:14.791Z,18.53
2018-04-17T05:52:19.933Z,16.80
2018-04-17T05:58:24.330Z,17.70
2018-04-17T06:04:28.763Z,20.90
2018-04-17T06:10:33.210Z,19.40
2018-04-17T06:16:37.666Z,19.13
2018-04-17T06:22:42.077Z,19.73
2018-04-17T06:28:46.457Z,18.67
2018-04-17T06:34:50.950Z,18.57
2018-04-17T06:40:55.356Z,16.57
2018-04-17T06:46:59.744Z,18.13
2018-04-17T06:53:04.968Z,14.80
2018-04-17T06:59:09.588Z,13.30
2018-04-17T07:05:14.070Z,12.60
2018-04-17T07:11:18.455Z,14.03
2018-04-17T07:17:22.869Z,15.97
2018-04-17T07:23:27.282Z,19.17
2018-04-17T07:29:31.741Z,17.00
2018-04-17T07:35:36.855Z,20.73
2018-04-17T07:41:41.442Z,21.20
2018-04-17T07:48:03.705Z,20.00
2018-04-17T07:54:08.174Z,21.63
2018-04-17T08:00:12.586Z,20.47
2018-04-17T08:06:17.002Z,21.23
2018-04-17T08:12:22.241Z,18.60
2018-04-17T08:18:26.722Z,19.40
2018-04-17T08:24:31.131Z,17.80
2018-04-17T08:30:35.501Z,18.17
2018-04-17T08:36:40.753Z,19.30
2018-04-17T08:42:45.198Z,19.07
2018-04-17T08:48:49.669Z,18.90
2018-04-17T08:54:54.817Z,20.10
2018-04-17T09:00:59.203Z,20.87
2018-04-17T09:07:03.660Z,20.33
2018-04-17T09:13:08.047Z,19.90
2018-04-17T09:19:13.272Z,20.87
2018-04-17T09:25:17.692Z,20.70
2018-04-17T09:31:22.148Z,20.13
2018-04-17T09:37:27.291Z,17.77
2018-04-17T09:43:31.749Z,16.43
2018-04-17T09:49:36.146Z,16.00
2018-04-17T09:55:41.026Z,16.60
2018-04-17T10:01:45.416Z,18.30
2018-04-17T10:07:49.849Z,19.40
2018-04-17T10:13:54.325Z,15.73
2018-04-17T10:19:58.818Z,12.63
2018-04-17T10:26:03.214Z,9.20
2018-04-17T10:32:07.613Z,12.47
2018-04-17T10:38:12.080Z,9.70
2018-04-17T10:44:16.574Z,6.10
2018-04-17T10:50:20.979Z,7.17
2018-04-17T10:56:26.190Z,7.87
2018-04-17T11:02:30.652Z,7.00
2018-04-17T11:08:35.127Z,9.00
2018-04-17T11:14:39.657Z,8.50
2018-04-17T11:20:44.254Z,8.03
2018-04-17T11:26:48.663Z,7.23
2018-04-17T11:32:53.034Z,9.50
2018-04-17T11:38:57.425Z,7.83
2018-04-17T11:45:01.819Z,7.10
2018-04-17T11:51:06.175Z,6.37
2018-04-17T11:57:10.563Z,5.40
2018-04-17T12:03:14.997Z,6.77
2018-04-17T12:09:20.171Z,7.70
2018-04-17T12:15:24.585Z,7.20
2018-04-17T12:21:28.973Z,6.83
2018-04-17T12:27:33.344Z,5.63
2018-04-17T12:33:37.766Z,6.23
2018-04-17T12:39:42.575Z,5.10
2018-04-17T12:45:47.785Z,5.67
2018-04-17T12:51:52.322Z,5.50
2018-04-17T12:57:56.672Z,5.70
2018-04-17T13:04:01.144Z,6.53
2018-04-17T13:10:05.518Z,7.17
2018-04-17T13:16:10.148Z,5.53
2018-04-17T13:22:17.600Z,4.93
2018-04-17T13:28:22.819Z,5.10
2018-04-17T13:34:27.189Z,4.03
2018-04-17T13:40:31.612Z,4.30
2018-04-17T13:46:35.997Z,4.90
2018-04-17T13:52:40.435Z,4.70
2018-04-17T13:58:44.888Z,3.50
2018-04-17T14:04:49.372Z,3.90
2018-04-17T14:10:53.856Z,3.73
2018-04-17T14:16:58.222Z,3.30
2018-04-17T14:23:02.635Z,3.80
2018-04-17T14:29:07.005Z,3.53
2018-04-17T14:35:11.943Z,3.70
2018-04-17T14:41:17.110Z,4.10
2018-04-17T14:47:21.566Z,4.10
2018-04-17T14:53:26.028Z,4.40
2018-04-17T14:59:30.490Z,3.60
2018-04-17T15:05:34.905Z,4.17
2018-04-17T15:11:39.291Z,4.33
2018-04-17T15:17:43.734Z,3.90
2018-04-17T15:23:48.169Z,4.93
2018-04-17T15:29:53.306Z,4.43
2018-04-17T15:35:57.681Z,4.23
2018-04-17T15:42:02.132Z,4.63
2018-04-17T15:48:06.622Z,4.73
2018-04-17T15:54:11.207Z,4.70
2018-04-17T16:00:15.663Z,5.33
2018-04-17T16:06:20.079Z,5.63
2018-04-17T16:12:24.435Z,5.50
2018-04-17T16:18:28.801Z,6.00
2018-04-17T16:24:33.285Z,5.83
2018-04-17T16:30:37.668Z,5.87
2018-04-17T16:36:42.372Z,5.63
2018-04-17T16:42:46.768Z,5.43
2018-04-17T16:48:51.123Z,5.50
2018-04-17T16:54:55.512Z,4.80
2018-04-17T17:00:59.916Z,5.23
2018-04-17T17:07:05.050Z,5.03
2018-04-17T17:13:09.620Z,4.20
2018-04-17T17:19:14.104Z,4.47
2018-04-17T17:25:18.485Z,4.30
2018-04-17T17:31:22.874Z,4.13
2018-04-17T17:37:27.315Z,3.63
2018-04-17T17:43:31.680Z,5.00
2018-04-17T17:49:36.060Z,4.73
2018-04-17T17:55:40.526Z,4.63
2018-04-17T18:01:45.307Z,5.30
2018-04-17T18:07:49.677Z,5.30
2018-04-17T18:13:54.824Z,5.67
2018-04-17T18:19:59.181Z,5.30
2018-04-17T18:26:03.547Z,7.13
2018-04-17T18:32:07.970Z,6.23
2018-04-17T18:38:12.565Z,6.50
2018-04-17T18:44:17.064Z,6.70
2018-04-17T18:50:21.424Z,6.60
2018-04-17T18:56:26.689Z,6.50
2018-04-17T19:02:31.058Z,6.17
2018-04-17T19:08:35.493Z,6.20
2018-04-17T19:14:40.077Z,6.67
2018-04-17T19:20:44.515Z,6.20
2018-04-17T19:26:49.728Z,6.50
2018-04-17T19:32:54.113Z,5.40
2018-04-17T19:38:58.499Z,5.57
2018-04-17T19:45:02.936Z,6.20
2018-04-17T19:51:08.111Z,6.80
2018-04-17T19:57:12.568Z,5.83
2018-04-17T20:03:16.971Z,5.23
2018-04-17T20:09:21.353Z,5.60
2018-04-17T20:15:25.771Z,5.50
2018-04-17T20:21:30.156Z,5.80
2018-04-17T20:27:34.528Z,5.97
2018-04-17T20:33:38.886Z,5.80
2018-04-17T20:39:43.283Z,5.73
2018-04-17T20:45:47.664Z,5.10
2018-04-17T20:51:52.032Z,5.33
2018-04-17T20:57:56.584Z,5.17
2018-04-17T21:04:01.745Z,5.40
2018-04-17T21:10:06.158Z,5.70
2018-04-17T21:16:10.754Z,6.10
2018-04-17T21:22:15.124Z,6.00
2018-04-17T21:28:19.528Z,5.90
2018-04-17T21:34:23.882Z,5.83
2018-04-17T21:40:28.276Z,5.90
2018-04-17T21:46:32.712Z,5.47
2018-04-17T21:52:37.173Z,6.27
2018-04-17T21:58:41.558Z,5.37
2018-04-17T22:04:45.962Z,6.10
2018-04-17T22:10:50.351Z,6.33
2018-04-17T22:16:54.879Z,6.43
2018-04-17T22:22:59.380Z,6.60
2018-04-17T22:29:03.748Z,6.90
2018-04-17T22:35:08.127Z,6.93
2018-04-17T22:41:12.727Z,6.63
2018-04-17T22:47:17.166Z,7.10
2018-04-17T22:53:21.526Z,6.87
2018-04-17T22:59:25.905Z,8.13
2018-04-17T23:05:31.233Z,7.20
2018-04-17T23:11:35.853Z,8.40
2018-04-17T23:17:40.226Z,7.50
2018-04-17T23:23:44.677Z,9.03
2018-04-17T23:29:49.030Z,9.50
2018-04-17T23:35:53.434Z,9.67
2018-04-17T23:41:57.811Z,10.83
2018-04-17T23:48:02.175Z,9.80
2018-04-17T23:54:06.551Z,10.87
